Time;durP1;ratioP1;P1;durP2;ratioP2;P2;SDS_P1;SDS_P2;PMS_P1;PMS_P2;Temp;Humidity;BMP_temperature;BMP_pressure;BME280_temperature;BME280_humidity;BME280_pressure;Samples;Min_cycle;Max_cycle;Signal;HPM_P1;HPM_P2
2021/05/17 00:01:46;;;;;;;2.23;0.70;;;;;;;8.11;84.19;95452.16;3545557;40;20463;-43
2021/05/17 00:04:15;;;;;;;1.83;0.80;;;;;;;8.06;84.56;95462.09;3548245;40;20898;-44
2021/05/17 00:06:43;;;;;;;1.50;0.70;;;;;;;8.03;84.63;95464.09;3546447;40;20806;-43
2021/05/17 00:09:11;;;;;;;7.47;1.00;;;;;;;8.03;84.69;95457.09;3532759;40;20575;-43
2021/05/17 00:11:39;;;;;;;2.20;0.70;;;;;;;8.03;84.72;95457.09;3545601;40;20505;-37
2021/05/17 00:14:08;;;;;;;6.40;1.00;;;;;;;8.02;84.43;95465.88;3547692;40;20551;-37
2021/05/17 00:16:36;;;;;;;4.70;0.87;;;;;;;7.97;84.45;95468.00;3547892;40;20877;-36
2021/05/17 00:19:05;;;;;;;3.20;0.87;;;;;;;7.95;84.79;95472.50;3546643;40;20696;-42
2021/05/17 00:21:32;;;;;;;1.20;0.70;;;;;;;7.96;84.98;95474.19;3548243;40;20823;-43
2021/05/17 00:24:04;;;;;;;2.10;0.63;;;;;;;7.97;84.85;95475.84;3547014;40;20699;-43
2021/05/17 00:26:38;;;;;;;5.60;1.47;;;;;;;7.95;84.70;95462.09;3547499;40;20482;-42
2021/05/17 00:29:09;;;;;;;2.57;0.70;;;;;;;7.99;84.66;95466.13;3547679;40;20462;-43
2021/05/17 00:31:37;;;;;;;7.80;1.73;;;;;;;7.97;85.05;95473.22;3545725;40;20549;-43
2021/05/17 00:34:06;;;;;;;2.97;0.77;;;;;;;7.97;84.50;95462.78;3548357;40;20898;-37
2021/05/17 00:36:34;;;;;;;3.43;1.07;;;;;;;8.05;83.97;95460.44;3548742;40;20604;-36
2021/05/17 00:39:05;;;;;;;5.27;0.80;;;;;;;8.13;83.53;95467.66;3547632;40;20721;-43
2021/05/17 00:41:32;;;;;;;3.57;0.80;;;;;;;8.10;83.67;95466.13;3546408;40;20549;-37
2021/05/17 00:44:01;;;;;;;3.83;0.80;;;;;;;8.09;83.47;95461.84;3547449;40;20455;-43
2021/05/17 00:46:31;;;;;;;7.43;0.87;;;;;;;8.10;84.05;95460.09;3546495;40;20467;-37
2021/05/17 00:48:59;;;;;;;3.33;0.70;;;;;;;8.08;83.90;95467.19;3544132;40;21242;-42
2021/05/17 00:51:27;;;;;;;1.33;0.73;;;;;;;8.12;83.63;95466.84;3547621;40;20538;-37
2021/05/17 00:53:55;;;;;;;1.07;0.70;;;;;;;8.14;83.56;95471.13;3543644;40;20429;-43
2021/05/17 00:56:23;;;;;;;2.30;0.90;;;;;;;8.13;83.46;95467.66;3549377;40;20475;-36
2021/05/17 00:58:51;;;;;;;1.10;0.70;;;;;;;8.16;82.42;95469.22;3543692;40;20866;-43
2021/05/17 01:01:18;;;;;;;4.37;0.77;;;;;;;8.22;81.74;95466.13;3550026;40;20485;-42
2021/05/17 01:03:46;;;;;;;8.83;1.37;;;;;;;8.20;81.66;95468.84;3543493;40;20460;-43
2021/05/17 01:06:17;;;;;;;3.23;0.70;;;;;;;8.22;82.03;95477.41;3546467;40;20498;-37
2021/05/17 01:08:48;;;;;;;0.90;0.70;;;;;;;8.19;82.88;95471.59;3544960;40;20456;-43
2021/05/17 01:11:18;;;;;;;6.20;0.93;;;;;;;8.08;84.06;95475.84;3553965;40;20475;-37
2021/05/17 01:13:46;;;;;;;3.93;1.03;;;;;;;8.07;83.85;95473.34;3548487;40;20796;-37
2021/05/17 01:16:14;;;;;;;3.47;1.00;;;;;;;8.01;84.75;95474.66;3558809;40;20890;-37
2021/05/17 01:18:42;;;;;;;2.50;0.70;;;;;;;7.96;84.09;95466.38;3561023;40;20891;-37
2021/05/17 01:21:16;;;;;;;2.13;0.83;;;;;;;8.02;84.07;95473.72;3558912;40;20881;-44
2021/05/17 01:23:50;;;;;;;1.90;0.60;;;;;;;7.97;83.04;95468.00;3560757;40;20869;-42
2021/05/17 01:26:18;;;;;;;1.00;0.80;;;;;;;8.07;83.36;95466.34;3559714;40;20575;-42
2021/05/17 01:28:46;;;;;;;2.50;0.70;;;;;;;7.98;83.73;95464.47;3559112;40;20776;-42
2021/05/17 01:31:14;;;;;;;3.27;1.00;;;;;;;8.05;83.34;95457.81;3548421;40;20474;-36
2021/05/17 01:33:43;;;;;;;2.50;0.60;;;;;;;8.07;82.91;95471.56;3561154;40;20770;-43
2021/05/17 01:36:13;;;;;;;2.50;0.80;;;;;;;8.04;83.91;95469.22;3557417;40;20778;-43
2021/05/17 01:38:42;;;;;;;1.53;0.70;;;;;;;8.01;84.10;95466.81;3560253;40;20446;-43
2021/05/17 01:41:13;;;;;;;3.43;0.80;;;;;;;7.96;84.24;95458.53;3558779;40;20967;-42
2021/05/17 01:43:45;;;;;;;1.63;0.70;;;;;;;7.99;84.17;95467.91;3560639;40;20893;-42
2021/05/17 01:46:21;;;;;;;3.33;0.70;;;;;;;7.93;84.86;95469.19;3548019;40;20838;-42
2021/05/17 01:48:50;;;;;;;2.20;0.90;;;;;;;7.86;85.23;95474.06;3548909;40;20755;-36
2021/05/17 01:51:20;;;;;;;1.57;0.70;;;;;;;7.82;84.64;95474.38;3558923;40;20817;-42
2021/05/17 01:53:49;;;;;;;9.33;0.63;;;;;;;7.91;84.47;95469.31;3561372;40;20465;-43
2021/05/17 01:56:19;;;;;;;1.13;0.70;;;;;;;7.87;84.06;95467.06;3549524;40;20458;-36
2021/05/17 01:58:48;;;;;;;1.27;0.60;;;;;;;7.89;83.86;95463.38;3561466;40;20465;-37
2021/05/17 02:01:18;;;;;;;2.60;0.70;;;;;;;7.87;84.07;95467.88;3557967;40;20458;-36
2021/05/17 02:03:47;;;;;;;8.80;0.87;;;;;;;7.27;83.19;95364.72;3561327;40;20438;-44
2021/05/17 02:06:16;;;;;;;0.90;0.60;;;;;;;7.85;82.86;95458.53;3558633;40;20462;-36
2021/05/17 02:08:45;;;;;;;3.23;0.70;;;;;;;7.52;83.58;95408.81;3561087;40;20833;-43
2021/05/17 02:11:15;;;;;;;1.83;0.60;;;;;;;7.87;82.62;95460.06;3558048;40;20861;-42
2021/05/17 02:13:44;;;;;;;1.80;0.60;;;;;;;7.94;81.99;95465.66;3559511;40;20476;-37
2021/05/17 02:16:13;;;;;;;2.30;0.80;;;;;;;7.92;82.86;95463.16;3558282;40;20771;-42
2021/05/17 02:18:42;;;;;;;6.60;0.80;;;;;;;7.92;83.12;95470.97;3558408;40;20923;-36
2021/05/17 02:21:10;;;;;;;1.93;0.90;;;;;;;7.84;83.25;95470.72;3558068;40;20783;-36
2021/05/17 02:23:38;;;;;;;3.67;0.73;;;;;;;7.88;83.29;95473.94;3557609;40;20767;-43
2021/05/17 02:26:06;;;;;;;3.07;0.60;;;;;;;7.87;82.89;95469.66;3558747;40;20467;-39
2021/05/17 02:28:36;;;;;;;3.03;0.90;;;;;;;7.85;83.14;95477.59;3559162;40;20652;-37
2021/05/17 02:31:06;;;;;;;11.60;1.10;;;;;;;7.84;83.11;95468.13;3558838;40;20457;-36
2021/05/17 02:33:35;;;;;;;1.67;0.67;;;;;;;7.84;83.43;95478.56;3558855;40;20465;-36
2021/05/17 02:36:04;;;;;;;0.80;0.57;;;;;;;7.79;83.44;95472.03;3559366;40;20477;-36
2021/05/17 02:38:32;;;;;;;2.33;0.60;;;;;;;7.84;83.15;95477.69;3560878;40;20492;-42
2021/05/17 02:41:00;;;;;;;1.50;0.50;;;;;;;7.82;82.94;95470.03;3560585;40;20491;-44
2021/05/17 02:43:29;;;;;;;1.00;0.60;;;;;;;7.73;83.21;95471.53;3561176;40;20462;-43
2021/05/17 02:45:59;;;;;;;3.23;0.67;;;;;;;7.76;83.41;95475.66;3558018;40;20470;-43
2021/05/17 02:48:29;;;;;;;4.87;0.70;;;;;;;7.47;83.31;95428.38;3562076;40;20497;-36
2021/05/17 02:50:58;;;;;;;2.60;0.60;;;;;;;7.65;83.31;95473.88;3560122;40;20761;-44
2021/05/17 02:53:35;;;;;;;2.20;0.57;;;;;;;7.67;83.35;95474.59;3561557;40;20526;-44
2021/05/17 02:56:09;;;;;;;1.37;0.70;;;;;;;7.61;84.26;95480.28;3565198;40;20664;-37
2021/05/17 02:58:38;;;;;;;2.30;0.63;;;;;;;7.62;84.24;95479.31;3550132;40;20843;-42
2021/05/17 03:01:08;;;;;;;0.90;0.60;;;;;;;7.56;84.75;95477.16;3547818;40;20533;-43
2021/05/17 03:03:46;;;;;;;0.90;0.60;;;;;;;7.53;83.82;95474.81;3562059;40;20705;-44
2021/05/17 03:06:18;;;;;;;0.70;0.50;;;;;;;7.53;84.10;95483.44;3561576;40;20465;-36
2021/05/17 03:08:53;;;;;;;3.30;0.80;;;;;;;7.49;84.81;95483.81;3559558;40;20478;-42
2021/05/17 03:11:22;;;;;;;1.43;0.63;;;;;;;7.41;84.50;95478.31;3558099;40;20802;-43
2021/05/17 03:13:52;;;;;;;1.57;0.60;;;;;;;7.52;83.62;95493.97;3562047;40;20897;-37
2021/05/17 03:16:21;;;;;;;2.20;0.97;;;;;;;7.52;83.81;95488.75;3581276;22;20490;-36
2021/05/17 03:18:56;;;;;;;1.90;0.60;;;;;;;7.49;84.06;95492.44;3542020;40;20708;-37
2021/05/17 03:21:27;;;;;;;2.80;0.50;;;;;;;7.51;84.34;95500.16;3537979;40;20827;-42
2021/05/17 03:23:56;;;;;;;2.80;0.70;;;;;;;7.46;84.40;95494.44;3540869;40;20485;-43
2021/05/17 03:26:25;;;;;;;1.63;0.60;;;;;;;7.47;84.85;95496.09;3540569;40;20576;-36
2021/05/17 03:28:53;;;;;;;1.10;0.60;;;;;;;7.51;84.26;95494.94;3539932;40;20489;-44
2021/05/17 03:31:21;;;;;;;0.83;0.53;;;;;;;7.41;84.91;95496.53;3540951;40;20527;-36
2021/05/17 03:33:48;;;;;;;4.20;0.60;;;;;;;7.38;85.04;95491.56;3540534;40;20435;-42
2021/05/17 03:36:17;;;;;;;2.60;0.60;;;;;;;7.38;84.96;95497.59;3541165;40;20734;-36
2021/05/17 03:38:45;;;;;;;1.20;0.53;;;;;;;7.31;85.18;95486.81;3540375;40;20907;-36
2021/05/17 03:41:29;;;;;;;2.17;0.73;;;;;;;7.42;84.73;95493.00;3544551;40;20470;-36
2021/05/17 03:44:29;;;;;;;1.60;0.77;;;;;;;7.28;84.53;95484.41;3543920;40;20547;-37
2021/05/17 03:46:57;;;;;;;0.90;0.50;;;;;;;7.40;84.88;95500.91;3537755;40;20789;-42
2021/05/17 03:49:25;;;;;;;0.90;0.70;;;;;;;7.45;83.98;95513.63;3539229;40;20510;-42
2021/05/17 03:51:54;;;;;;;3.47;0.57;;;;;;;7.45;83.86;95508.41;3538186;40;20464;-36
2021/05/17 03:54:21;;;;;;;1.57;0.60;;;;;;;7.38;84.22;95518.44;3537585;40;20456;-44
2021/05/17 03:56:49;;;;;;;3.50;0.70;;;;;;;7.36;84.93;95524.72;3537889;40;21068;-36
2021/05/17 03:59:17;;;;;;;2.60;1.10;;;;;;;7.29;84.41;95509.53;3540561;40;20877;-38
2021/05/17 04:01:45;;;;;;;1.40;0.70;;;;;;;7.33;84.69;95521.38;3539918;40;20488;-42
2021/05/17 04:04:14;;;;;;;1.23;0.60;;;;;;;7.30;84.93;95519.00;3537880;40;20850;-36
2021/05/17 04:06:47;;;;;;;2.07;0.77;;;;;;;7.30;85.36;95528.59;3533221;40;20778;-37
2021/05/17 04:18:24;;;;;;;1.03;0.60;;;;;;;7.36;83.96;95537.72;3515891;40;20714;-40
2021/05/17 04:20:53;;;;;;;1.93;0.60;;;;;;;7.44;83.74;95543.22;3511080;40;20486;-33
2021/05/17 04:23:22;;;;;;;0.80;0.50;;;;;;;7.42;83.20;95542.50;3509660;40;20922;-33
2021/05/17 04:25:52;;;;;;;1.03;0.60;;;;;;;7.41;83.88;95546.03;3511188;40;20569;-40
2021/05/17 04:28:20;;;;;;;1.27;0.50;;;;;;;7.41;83.71;95540.81;3514240;40;20541;-34
2021/05/17 04:30:48;;;;;;;0.80;0.60;;;;;;;7.39;84.00;95545.31;3513004;40;20451;-40
2021/05/17 04:33:16;;;;;;;2.20;0.77;;;;;;;7.42;83.00;95545.09;3510839;40;20553;-44
2021/05/17 04:35:43;;;;;;;0.80;0.50;;;;;;;7.40;82.54;95536.56;3511042;40;20554;-34
2021/05/17 04:38:10;;;;;;;1.67;0.60;;;;;;;7.39;83.02;95540.09;3510634;40;20501;-40
2021/05/17 04:40:38;;;;;;;1.00;0.60;;;;;;;7.35;82.69;95551.69;3511317;40;20852;-33
2021/05/17 04:43:06;;;;;;;2.60;0.60;;;;;;;7.35;82.67;95546.47;3511069;40;20825;-34
2021/05/17 04:45:34;;;;;;;1.07;0.50;;;;;;;7.30;82.28;95542.44;3510157;40;21133;-35
2021/05/17 04:48:01;;;;;;;0.80;0.50;;;;;;;7.31;82.05;95548.47;3511130;40;21061;-34
2021/05/17 04:50:28;;;;;;;2.40;0.60;;;;;;;7.27;81.88;95553.09;3509430;40;20464;-40
2021/05/17 04:52:56;;;;;;;0.90;0.60;;;;;;;7.26;82.05;95546.19;3512218;40;20474;-40
2021/05/17 04:55:23;;;;;;;1.00;0.50;;;;;;;7.30;81.83;95547.66;3510857;40;21177;-40
2021/05/17 04:57:51;;;;;;;1.27;0.50;;;;;;;7.39;81.35;95551.38;3511785;40;20785;-34
2021/05/17 05:00:21;;;;;;;0.70;0.50;;;;;;;7.51;80.58;95554.84;3510207;40;20459;-34
2021/05/17 05:03:32;;;;;;;2.60;0.70;;;;;;;7.70;80.09;95565.59;3514634;40;20779;-40
2021/05/17 05:06:01;;;;;;;2.70;0.60;;;;;;;7.67;80.19;95564.97;3552110;40;20728;-34
2021/05/17 05:08:28;;;;;;;2.13;0.60;;;;;;;7.69;80.07;95561.31;3554499;40;20471;-34
2021/05/17 05:10:56;;;;;;;7.33;0.67;;;;;;;7.67;80.11;95563.19;3551044;40;20466;-35
2021/05/17 05:13:23;;;;;;;1.57;0.83;;;;;;;7.70;79.97;95569.94;3553095;40;20836;-35
2021/05/17 05:15:52;;;;;;;2.30;0.60;;;;;;;7.70;80.07;95563.00;3556122;40;20705;-41
2021/05/17 05:18:21;;;;;;;2.03;0.70;;;;;;;7.68;80.27;95570.09;3551576;40;20852;-35
2021/05/17 05:20:49;;;;;;;4.93;1.63;;;;;;;7.77;79.78;95570.34;3551403;40;20476;-35
2021/05/17 05:23:19;;;;;;;7.13;1.00;;;;;;;7.81;79.07;95566.56;3555607;40;20467;-34
2021/05/17 05:28:42;;;;;;;2.27;0.63;;;;;;;7.83;78.41;95568.09;3542502;40;20940;-40
2021/05/17 05:31:14;;;;;;;5.40;0.80;;;;;;;7.87;78.42;95577.34;3553297;40;20455;-35
2021/05/17 05:33:41;;;;;;;2.80;1.13;;;;;;;7.80;77.93;95570.09;3554142;40;20485;-35
2021/05/17 05:36:09;;;;;;;1.10;0.70;;;;;;;7.83;79.04;95577.72;3550587;40;20567;-43
2021/05/17 05:38:37;;;;;;;2.20;0.70;;;;;;;7.86;79.19;95573.09;3552572;40;20500;-34
2021/05/17 05:41:04;;;;;;;1.10;0.50;;;;;;;7.25;79.00;95481.19;3553413;40;20786;-34
2021/05/17 05:43:32;;;;;;;1.67;0.70;;;;;;;7.94;78.73;95572.53;3554671;40;20812;-34
2021/05/17 05:45:59;;;;;;;3.47;0.77;;;;;;;8.03;78.40;95608.34;3553578;40;20470;-35
2021/05/17 05:48:27;;;;;;;3.27;0.80;;;;;;;7.95;78.69;95589.84;3553068;40;21155;-41
2021/05/17 05:50:55;;;;;;;1.10;0.60;;;;;;;7.93;78.25;95586.50;3554284;40;20551;-34
2021/05/17 05:53:23;;;;;;;3.87;1.90;;;;;;;7.92;78.91;95595.28;3552467;40;20451;-34
2021/05/17 05:55:54;;;;;;;0.90;0.57;;;;;;;7.92;79.43;95598.72;3553844;40;20807;-34
2021/05/17 05:58:21;;;;;;;2.17;0.70;;;;;;;7.88;80.54;95601.69;3552341;40;20847;-41
2021/05/17 06:00:49;;;;;;;3.77;1.00;;;;;;;7.84;79.94;95619.31;3553131;40;20481;-40
2021/05/17 06:03:17;;;;;;;1.10;0.80;;;;;;;7.80;81.51;95611.81;3554483;40;20431;-36
2021/05/17 06:05:46;;;;;;;0.90;0.50;;;;;;;7.79;82.12;95617.97;3551997;40;20468;-40
2021/05/17 06:08:14;;;;;;;2.10;0.70;;;;;;;7.75;82.38;95619.97;3553229;40;21120;-40
2021/05/17 06:10:51;;;;;;;1.73;0.60;;;;;;;7.82;83.04;95626.41;3552586;40;20478;-34
2021/05/17 06:13:20;;;;;;;1.13;0.60;;;;;;;7.80;82.74;95624.84;3551724;40;20446;-34
2021/05/17 06:15:48;;;;;;;1.57;0.97;;;;;;;7.79;82.53;95628.41;3553414;40;20828;-33
2021/05/17 06:18:16;;;;;;;1.00;0.50;;;;;;;7.83;82.56;95635.06;3552760;40;20793;-34
2021/05/17 06:20:44;;;;;;;1.73;0.60;;;;;;;7.85;82.56;95634.00;3552874;40;21138;-33
2021/05/17 06:23:15;;;;;;;1.33;0.60;;;;;;;7.83;82.66;95638.50;3555053;40;20915;-34
2021/05/17 06:25:43;;;;;;;5.53;0.80;;;;;;;7.80;82.45;95614.41;3610172;22;20442;-71
2021/05/17 06:28:11;;;;;;;1.07;0.67;;;;;;;8.09;82.18;95640.97;3547129;40;20932;-72
2021/05/17 06:30:44;;;;;;;2.93;1.80;;;;;;;8.14;81.93;95645.84;3548325;40;20763;-73
2021/05/17 06:33:14;;;;;;;0.87;0.50;;;;;;;8.37;81.17;95642.34;3551758;40;20922;-71
2021/05/17 06:35:44;;;;;;;2.00;0.73;;;;;;;8.54;79.61;95651.53;3549744;40;20462;-75
2021/05/17 06:38:13;;;;;;;1.30;0.80;;;;;;;8.64;80.11;95649.88;3547957;40;20474;-73
2021/05/17 06:40:41;;;;;;;1.33;0.60;;;;;;;8.82;78.20;95652.03;3546542;40;20903;-74
2021/05/17 06:43:09;;;;;;;4.53;1.03;;;;;;;8.80;78.26;95657.41;3544538;40;20535;-73
2021/05/17 06:45:37;;;;;;;4.00;0.90;;;;;;;8.63;80.46;95658.69;3543195;40;20492;-71
2021/05/17 06:48:07;;;;;;;1.00;0.50;;;;;;;8.60;76.87;95665.91;3553851;40;20450;-73
2021/05/17 06:50:34;;;;;;;0.90;0.50;;;;;;;8.56;75.49;95672.31;3548468;40;20502;-73
2021/05/17 06:53:03;;;;;;;1.77;0.57;;;;;;;8.46;75.90;95661.72;3545665;40;20924;-72
2021/05/17 06:55:37;;;;;;;0.80;0.50;;;;;;;8.37;75.64;95671.06;3544865;40;20448;-73
2021/05/17 06:58:15;;;;;;;1.37;0.50;;;;;;;8.27;75.91;95665.69;3542508;40;20818;-71
2021/05/17 07:00:43;;;;;;;0.80;0.50;;;;;;;8.40;75.01;95664.78;3549965;40;20455;-72
2021/05/17 07:03:11;;;;;;;0.97;0.50;;;;;;;8.71;75.43;95676.38;3546418;40;20495;-73
2021/05/17 07:05:40;;;;;;;1.40;0.50;;;;;;;9.19;71.86;95672.72;3546032;40;20488;-74
2021/05/17 07:13:41;;;;;;;1.77;0.60;;;;;;;10.28;67.29;95667.44;3550266;40;20946;-75
2021/05/17 07:16:08;;;;;;;4.20;0.57;;;;;;;10.66;65.34;95662.63;3542417;40;20476;-76
2021/05/17 07:18:36;;;;;;;0.87;0.50;;;;;;;10.81;65.71;95663.97;3545686;40;20859;-72
2021/05/17 07:23:50;;;;;;;1.70;0.60;;;;;;;11.11;65.09;95672.78;3551258;40;20908;-76
2021/05/17 07:26:19;;;;;;;0.70;0.50;;;;;;;10.58;66.66;95665.06;3549254;40;20483;-73
2021/05/17 07:28:49;;;;;;;6.00;0.90;;;;;;;10.56;66.30;95672.22;3549665;40;20754;-74
2021/05/17 07:31:17;;;;;;;9.27;4.00;;;;;;;10.60;66.79;95661.34;3544561;40;20833;-73
2021/05/17 07:33:45;;;;;;;1.10;0.60;;;;;;;10.43;67.87;95675.84;3549038;40;20452;-77
2021/05/17 07:36:13;;;;;;;9.20;0.90;;;;;;;10.22;67.79;95670.56;3546664;40;20779;-73
2021/05/17 07:38:42;;;;;;;5.57;0.87;;;;;;;10.23;66.93;95676.63;3551409;40;20519;-73
2021/05/17 07:41:09;;;;;;;1.87;0.77;;;;;;;9.99;68.57;95677.66;3545880;40;20716;-73
2021/05/17 07:43:38;;;;;;;8.90;0.90;;;;;;;9.89;69.32;95674.13;3548568;40;20460;-72
2021/05/17 07:46:06;;;;;;;1.53;0.63;;;;;;;9.76;68.69;95676.06;3546402;40;20554;-75
2021/05/17 07:48:34;;;;;;;1.43;0.70;;;;;;;9.74;70.18;95680.59;3544341;40;20476;-75
2021/05/17 07:51:02;;;;;;;1.57;0.60;;;;;;;9.82;70.17;95691.25;3544250;40;21077;-72
2021/05/17 07:53:29;;;;;;;1.77;0.70;;;;;;;9.86;70.07;95690.09;3547101;40;20547;-75
2021/05/17 07:55:57;;;;;;;3.00;0.70;;;;;;;9.74;68.38;95691.06;3543399;40;20828;-75
2021/05/17 07:58:24;;;;;;;2.00;0.70;;;;;;;9.85;68.18;95691.03;3544902;40;20504;-73
2021/05/17 08:00:52;;;;;;;2.30;0.67;;;;;;;9.93;67.35;95691.25;3548948;40;20463;-74
2021/05/17 08:03:20;;;;;;;4.53;0.73;;;;;;;9.98;67.23;95694.31;3549810;40;20464;-74
2021/05/17 08:06:03;;;;;;;3.80;0.90;;;;;;;10.38;65.64;95695.50;3547930;40;20454;-74
2021/05/17 08:08:30;;;;;;;4.73;0.80;;;;;;;10.80;64.18;95698.13;3546727;40;20554;-75
2021/05/17 08:11:00;;;;;;;3.60;0.83;;;;;;;10.84;65.10;95694.31;3546530;40;20456;-75
2021/05/17 08:13:28;;;;;;;2.23;0.70;;;;;;;11.33;63.29;95691.91;3548000;40;20948;-74
2021/05/17 08:16:16;;;;;;;4.50;0.70;;;;;;;11.66;62.65;95689.00;3548139;40;20476;-75
2021/05/17 08:18:44;;;;;;;7.00;3.70;;;;;;;11.66;62.35;95696.03;3544825;40;20467;-73
2021/05/17 08:21:12;;;;;;;3.77;1.70;;;;;;;11.20;62.64;95686.91;3545801;40;20495;-74
2021/05/17 08:23:39;;;;;;;3.37;0.80;;;;;;;10.66;63.68;95683.56;3547995;40;20448;-74
2021/05/17 08:26:08;;;;;;;1.30;0.60;;;;;;;10.47;62.85;95684.28;3548022;40;20891;-71
2021/05/17 08:28:36;;;;;;;5.03;0.90;;;;;;;10.58;63.66;95683.38;3545758;40;20922;-76
2021/05/17 08:31:05;;;;;;;1.10;0.70;;;;;;;10.59;65.07;95679.81;3544061;40;20963;-72
2021/05/17 08:33:33;;;;;;;1.03;0.50;;;;;;;10.67;64.36;95690.47;3546732;40;20474;-75
2021/05/17 08:36:01;;;;;;;2.73;0.63;;;;;;;10.39;64.94;95687.53;3543407;40;20464;-73
2021/05/17 08:38:29;;;;;;;2.97;0.70;;;;;;;10.46;65.02;95696.53;3549257;40;20913;-74
2021/05/17 08:40:56;;;;;;;1.07;0.70;;;;;;;10.61;64.62;95696.22;3549078;40;20891;-73
2021/05/17 08:43:24;;;;;;;2.80;0.80;;;;;;;10.80;64.28;95695.50;3544106;40;20694;-74
2021/05/17 08:45:52;;;;;;;2.07;0.70;;;;;;;10.87;63.53;95692.25;3547263;40;20463;-74
2021/05/17 08:48:19;;;;;;;1.00;0.60;;;;;;;10.87;62.35;95696.66;3550110;40;20463;-74
2021/05/17 08:50:57;;;;;;;1.97;0.60;;;;;;;10.57;63.55;95692.22;3546405;40;20444;-76
2021/05/17 08:53:24;;;;;;;1.90;0.67;;;;;;;10.61;64.47;95701.47;3547851;40;20519;-75
2021/05/17 08:55:51;;;;;;;3.10;0.83;;;;;;;10.58;64.49;95701.72;3549119;40;21141;-76
2021/05/17 08:58:20;;;;;;;2.67;0.70;;;;;;;10.66;64.27;95707.13;3545112;40;21104;-72
2021/05/17 09:00:47;;;;;;;4.97;0.50;;;;;;;10.43;64.48;95709.06;3552406;40;20486;-75
2021/05/17 09:03:15;;;;;;;8.13;2.33;;;;;;;10.49;64.44;95703.31;3544180;40;20666;-75
2021/05/17 09:05:48;;;;;;;1.70;1.13;;;;;;;10.64;64.42;95711.66;3544819;40;20771;-73
2021/05/17 09:08:18;;;;;;;6.30;0.60;;;;;;;10.89;63.48;95710.47;3545374;40;20457;-74
2021/05/17 09:10:47;;;;;;;1.63;0.70;;;;;;;10.89;64.51;95713.91;3548016;40;20464;-74
2021/05/17 09:13:15;;;;;;;2.10;0.70;;;;;;;11.05;64.42;95707.38;3542554;40;20483;-74
2021/05/17 09:15:45;;;;;;;2.50;0.97;;;;;;;11.25;64.07;95703.91;3543379;40;20457;-74
2021/05/17 09:18:14;;;;;;;1.20;0.57;;;;;;;10.75;63.12;95711.63;3553009;40;20483;-77
2021/05/17 09:20:44;;;;;;;5.50;0.70;;;;;;;10.79;62.39;95694.69;3545034;40;20932;-74
2021/05/17 09:23:15;;;;;;;0.90;0.60;;;;;;;10.94;62.69;95702.19;3546986;40;20674;-76
2021/05/17 09:25:58;;;;;;;1.57;0.60;;;;;;;10.95;62.37;95693.41;3545234;40;20454;-74
2021/05/17 09:28:27;;;;;;;1.10;0.50;;;;;;;10.81;63.44;95699.81;3546606;40;20685;-73
2021/05/17 09:31:21;;;;;;;1.10;0.50;;;;;;;10.87;63.01;95707.97;3554567;40;20543;-74
2021/05/17 09:33:52;;;;;;;0.87;0.50;;;;;;;10.94;63.71;95699.59;3544620;40;20867;-74
2021/05/17 09:36:28;;;;;;;0.90;0.50;;;;;;;11.06;62.91;95701.19;3545218;40;20515;-72
2021/05/17 09:39:03;;;;;;;3.90;0.70;;;;;;;11.15;61.93;95703.00;3547559;40;20478;-73
2021/05/17 09:41:38;;;;;;;0.80;0.50;;;;;;;10.88;61.61;95699.16;3558630;40;20518;-77
2021/05/17 09:44:06;;;;;;;1.67;0.60;;;;;;;10.93;61.43;95703.19;3544697;40;20812;-74
2021/05/17 09:47:01;;;;;;;0.87;0.50;;;;;;;11.38;61.17;95705.47;3547472;40;20471;-74
2021/05/17 09:49:32;;;;;;;1.87;0.50;;;;;;;11.32;61.68;95712.06;3548193;40;20895;-74
2021/05/17 09:52:12;;;;;;;6.30;1.37;;;;;;;11.71;61.37;95708.75;3545253;40;20949;-74
2021/05/17 09:54:52;;;;;;;1.83;0.60;;;;;;;11.73;60.87;95701.56;3546709;40;20514;-75
2021/05/17 09:57:21;;;;;;;0.77;0.50;;;;;;;11.80;60.57;95706.16;3544400;40;20881;-78
2021/05/17 09:59:51;;;;;;;1.63;0.50;;;;;;;11.63;60.00;95698.94;3542829;40;21062;-77
2021/05/17 10:02:40;;;;;;;1.13;0.50;;;;;;;12.31;58.39;95698.22;3551972;40;20527;-77
2021/05/17 10:05:14;;;;;;;3.83;0.60;;;;;;;12.92;57.30;95687.38;3546589;40;20949;-78
2021/05/17 10:07:42;;;;;;;2.13;0.60;;;;;;;12.66;57.07;95687.13;3547324;40;20469;-78
2021/05/17 10:10:12;;;;;;;1.97;0.80;;;;;;;12.55;55.34;95697.81;3549710;40;20529;-78
2021/05/17 10:12:40;;;;;;;1.17;0.50;;;;;;;12.29;56.53;95695.75;3546500;40;20854;-76
2021/05/17 10:15:11;;;;;;;2.30;0.60;;;;;;;12.44;56.54;95696.97;3546623;40;20704;-74
2021/05/17 10:17:39;;;;;;;3.73;0.60;;;;;;;12.10;57.97;95708.88;3546377;40;20471;-76
2021/05/17 10:20:09;;;;;;;1.00;0.60;;;;;;;12.06;59.01;95709.13;3538427;40;20763;-80
2021/05/17 10:22:37;;;;;;;2.90;0.60;;;;;;;11.81;59.93;95722.72;3547007;40;20460;-78
2021/05/17 10:25:06;;;;;;;3.17;0.77;;;;;;;11.61;64.86;95725.28;3541853;40;20865;-79
2021/05/17 10:27:40;;;;;;;2.30;0.50;;;;;;;11.52;64.55;95685.91;3547692;40;20491;-76
2021/05/17 10:30:10;;;;;;;0.80;0.50;;;;;;;11.86;65.00;95699.53;3543470;40;20447;-76
2021/05/17 10:32:44;;;;;;;1.47;0.50;;;;;;;12.24;61.01;95687.44;3541069;40;20468;-76
2021/05/17 10:35:16;;;;;;;1.27;0.70;;;;;;;12.70;59.19;95685.91;3544385;40;20840;-80
2021/05/17 10:37:48;;;;;;;1.00;0.50;;;;;;;12.58;58.74;95694.91;3539168;40;20458;-78
2021/05/17 10:40:33;;;;;;;0.80;0.50;;;;;;;12.67;58.51;95686.19;3546272;40;20484;-77
2021/05/17 10:43:15;;;;;;;3.27;1.30;;;;;;;12.93;58.39;95682.94;3549634;40;20458;-76
2021/05/17 10:48:31;;;;;;;1.93;0.50;;;;;;;13.14;57.45;95690.66;3549229;40;20471;-80
2021/05/17 10:51:11;;;;;;;1.00;0.60;;;;;;;13.04;56.98;95680.97;3540637;40;20773;-77
2021/05/17 10:53:47;;;;;;;3.70;0.87;;;;;;;13.60;56.12;95688.94;3550627;40;20749;-76
2021/05/17 10:56:17;;;;;;;1.63;0.70;;;;;;;13.03;56.91;95695.09;3543694;40;20754;-78
2021/05/17 11:01:57;;;;;;;2.17;0.80;;;;;;;11.65;63.31;95697.81;3552856;40;21171;-77
2021/05/17 11:04:33;;;;;;;1.90;0.50;;;;;;;11.38;63.42;95719.38;3548880;40;20754;-77
2021/05/17 11:07:19;;;;;;;10.50;0.83;;;;;;;11.22;66.17;95713.81;3546198;40;20473;-75
2021/05/17 11:10:12;;;;;;;1.37;0.70;;;;;;;10.89;67.64;95715.69;3548954;40;20500;-77
2021/05/17 11:13:14;;;;;;;1.93;0.63;;;;;;;10.49;71.18;95735.56;3549716;40;20789;-77
2021/05/17 11:15:48;;;;;;;3.70;0.73;;;;;;;10.37;72.68;95747.03;3545607;40;20481;-77
2021/05/17 11:18:22;;;;;;;0.83;0.50;;;;;;;9.84;73.92;95749.50;3536948;40;20561;-74
2021/05/17 11:20:53;;;;;;;1.43;0.70;;;;;;;10.21;72.62;95736.09;3540601;40;20835;-74
2021/05/17 11:24:05;;;;;;;2.80;1.07;;;;;;;11.33;74.12;95749.56;3549360;40;20440;-76
2021/05/17 11:26:50;;;;;;;1.80;0.97;;;;;;;12.66;71.06;95742.28;3544308;40;20584;-74
2021/05/17 11:29:33;;;;;;;1.87;0.50;;;;;;;12.39;67.25;95735.97;3543574;40;20690;-76
2021/05/17 11:32:19;;;;;;;1.47;0.50;;;;;;;12.52;68.57;95726.97;3546267;40;20554;-76
2021/05/17 11:35:02;;;;;;;1.70;0.60;;;;;;;12.69;67.08;95731.53;3547365;40;20598;-78
2021/05/17 11:37:30;;;;;;;1.77;0.57;;;;;;;12.79;66.45;95727.09;3543980;40;20942;-76
2021/05/17 11:40:26;;;;;;;1.40;0.70;;;;;;;12.85;63.46;95729.16;3542620;40;20781;-78
2021/05/17 11:42:57;;;;;;;0.90;0.60;;;;;;;12.88;62.06;95714.06;3549148;40;20827;-75
2021/05/17 11:45:25;;;;;;;3.17;0.70;;;;;;;13.16;62.57;95715.81;3547272;40;20774;-80
2021/05/17 11:47:53;;;;;;;1.00;0.50;;;;;;;12.48;62.77;95725.59;3547482;40;20964;-76
2021/05/17 11:50:21;;;;;;;2.97;0.60;;;;;;;12.72;61.14;95726.00;3553190;40;20511;-79
2021/05/17 11:52:50;;;;;;;1.10;0.50;;;;;;;13.12;62.50;95738.09;3549477;40;20461;-79
2021/05/17 11:55:17;;;;;;;2.40;0.50;;;;;;;13.47;58.50;95730.56;3551423;40;20889;-79
2021/05/17 11:57:44;;;;;;;0.70;0.47;;;;;;;13.91;55.18;95728.94;3547380;40;20820;-78
2021/05/17 12:00:15;;;;;;;10.13;6.17;;;;;;;14.00;54.70;95725.44;3549198;40;20892;-79
2021/05/17 12:02:44;;;;;;;0.70;0.40;;;;;;;13.56;54.28;95719.97;3542432;40;20475;-79
2021/05/17 12:05:13;;;;;;;18.30;0.67;;;;;;;13.04;56.52;95732.72;3551715;40;20625;-77
2021/05/17 12:07:44;;;;;;;1.10;0.50;;;;;;;13.05;56.30;95734.38;3549406;40;20472;-75
2021/05/17 12:10:13;;;;;;;0.73;0.47;;;;;;;12.95;56.40;95723.88;3545342;40;20965;-76
2021/05/17 12:12:40;;;;;;;0.77;0.60;;;;;;;12.92;57.48;95724.19;3547825;40;20616;-76
2021/05/17 12:15:11;;;;;;;0.70;0.50;;;;;;;13.47;54.49;95712.97;3548941;40;20688;-78
2021/05/17 12:17:39;;;;;;;0.90;0.60;;;;;;;14.48;53.66;95722.63;3542903;40;20513;-76
2021/05/17 12:20:09;;;;;;;1.23;0.60;;;;;;;14.46;52.15;95716.69;3548248;40;20494;-80
2021/05/17 12:22:40;;;;;;;1.00;0.60;;;;;;;13.42;53.58;95715.19;3550874;40;20475;-77